sensor_id;sensor_type;location;lat;lon;timestamp;pressure;altitude;pressure_sealevel;temperature;humidity
59154;BME280;44935;48.944;9.418;2023-07-20T00:01:32;98490.07;;;22.06;30.70
59154;BME280;44935;48.944;9.418;2023-07-20T00:03:59;98491.29;;;21.78;30.88
59154;BME280;44935;48.944;9.418;2023-07-20T00:06:26;98492.46;;;22.40;30.37
59154;BME280;44935;48.944;9.418;2023-07-20T00:08:54;98496.52;;;22.33;30.27
59154;BME280;44935;48.944;9.418;2023-07-20T00:11:26;98501.36;;;22.64;29.99
59154;BME280;44935;48.944;9.418;2023-07-20T00:13:54;98502.76;;;22.26;30.36
59154;BME280;44935;48.944;9.418;2023-07-20T00:16:21;98506.09;;;22.29;30.16
59154;BME280;44935;48.944;9.418;2023-07-20T00:18:47;98505.41;;;22.00;30.15
59154;BME280;44935;48.944;9.418;2023-07-20T00:21:14;98503.33;;;22.56;29.69
59154;BME280;44935;48.944;9.418;2023-07-20T00:23:41;98507.37;;;23.08;29.18
59154;BME280;44935;48.944;9.418;2023-07-20T00:26:08;98511.05;;;23.44;29.02
59154;BME280;44935;48.944;9.418;2023-07-20T00:28:35;98509.12;;;23.26;28.99
59154;BME280;44935;48.944;9.418;2023-07-20T00:31:02;98507.42;;;22.86;29.45
59154;BME280;44935;48.944;9.418;2023-07-20T00:33:29;98507.91;;;22.98;29.58
59154;BME280;44935;48.944;9.418;2023-07-20T00:35:56;98509.77;;;22.64;29.66
59154;BME280;44935;48.944;9.418;2023-07-20T00:38:23;98508.19;;;23.00;29.54
59154;BME280;44935;48.944;9.418;2023-07-20T00:40:50;98505.98;;;22.33;29.91
59154;BME280;44935;48.944;9.418;2023-07-20T00:43:17;98504.42;;;21.85;30.46
59154;BME280;44935;48.944;9.418;2023-07-20T00:45:44;98502.41;;;22.04;30.30
59154;BME280;44935;48.944;9.418;2023-07-20T00:48:12;98504.57;;;22.55;29.85
59154;BME280;44935;48.944;9.418;2023-07-20T00:50:40;98505.40;;;22.28;30.25
59154;BME280;44935;48.944;9.418;2023-07-20T00:53:08;98500.99;;;22.86;29.80
59154;BME280;44935;48.944;9.418;2023-07-20T00:55:36;98503.31;;;22.42;30.31
59154;BME280;44935;48.944;9.418;2023-07-20T00:58:03;98502.41;;;22.58;30.13
59154;BME280;44935;48.944;9.418;2023-07-20T01:00:31;98506.15;;;22.81;30.16
59154;BME280;44935;48.944;9.418;2023-07-20T01:02:57;98508.48;;;22.57;30.10
59154;BME280;44935;48.944;9.418;2023-07-20T01:05:31;98504.09;;;22.49;30.23
59154;BME280;44935;48.944;9.418;2023-07-20T01:08:07;98509.18;;;22.85;30.41
59154;BME280;44935;48.944;9.418;2023-07-20T01:10:39;98509.94;;;22.86;30.39
59154;BME280;44935;48.944;9.418;2023-07-20T01:13:07;98513.73;;;22.54;30.67
59154;BME280;44935;48.944;9.418;2023-07-20T01:15:36;98514.97;;;22.44;30.91
59154;BME280;44935;48.944;9.418;2023-07-20T01:18:03;98515.67;;;22.27;30.95
59154;BME280;44935;48.944;9.418;2023-07-20T01:20:32;98513.54;;;22.17;31.34
59154;BME280;44935;48.944;9.418;2023-07-20T01:24:19;98511.24;;;22.00;31.43
59154;BME280;44935;48.944;9.418;2023-07-20T01:27:06;98509.46;;;22.10;31.46
59154;BME280;44935;48.944;9.418;2023-07-20T01:29:53;98509.57;;;22.00;31.31
59154;BME280;44935;48.944;9.418;2023-07-20T01:32:23;98515.08;;;22.00;31.53
59154;BME280;44935;48.944;9.418;2023-07-20T01:34:53;98517.43;;;21.96;31.89
59154;BME280;44935;48.944;9.418;2023-07-20T01:37:21;98516.89;;;21.65;32.63
59154;BME280;44935;48.944;9.418;2023-07-20T01:39:49;98516.30;;;21.51;33.26
59154;BME280;44935;48.944;9.418;2023-07-20T01:42:16;98512.35;;;21.27;33.37
59154;BME280;44935;48.944;9.418;2023-07-20T01:44:43;98512.14;;;21.74;32.85
59154;BME280;44935;48.944;9.418;2023-07-20T01:47:10;98516.28;;;21.45;32.83
59154;BME280;44935;48.944;9.418;2023-07-20T01:49:50;98516.67;;;21.56;32.68
59154;BME280;44935;48.944;9.418;2023-07-20T01:52:17;98517.77;;;21.52;32.51
59154;BME280;44935;48.944;9.418;2023-07-20T01:54:44;98514.50;;;21.63;32.74
59154;BME280;44935;48.944;9.418;2023-07-20T01:57:11;98514.89;;;21.65;32.81
59154;BME280;44935;48.944;9.418;2023-07-20T01:59:39;98517.22;;;20.96;33.13
59154;BME280;44935;48.944;9.418;2023-07-20T02:02:05;98519.61;;;20.99;33.39
59154;BME280;44935;48.944;9.418;2023-07-20T02:04:33;98516.24;;;21.15;33.11
59154;BME280;44935;48.944;9.418;2023-07-20T02:06:59;98520.08;;;21.45;32.71
59154;BME280;44935;48.944;9.418;2023-07-20T02:09:26;98517.29;;;21.30;33.29
59154;BME280;44935;48.944;9.418;2023-07-20T02:11:53;98520.44;;;20.99;33.94
59154;BME280;44935;48.944;9.418;2023-07-20T02:14:20;98519.75;;;20.38;35.04
59154;BME280;44935;48.944;9.418;2023-07-20T02:16:47;98522.28;;;20.47;35.69
59154;BME280;44935;48.944;9.418;2023-07-20T02:19:14;98521.28;;;20.29;35.84
59154;BME280;44935;48.944;9.418;2023-07-20T02:21:41;98522.57;;;20.29;35.64
59154;BME280;44935;48.944;9.418;2023-07-20T02:24:08;98521.43;;;20.29;35.82
59154;BME280;44935;48.944;9.418;2023-07-20T02:26:35;98520.71;;;20.14;35.65
59154;BME280;44935;48.944;9.418;2023-07-20T02:29:02;98519.42;;;20.64;34.91
59154;BME280;44935;48.944;9.418;2023-07-20T02:31:29;98519.52;;;20.41;35.32
59154;BME280;44935;48.944;9.418;2023-07-20T02:33:56;98525.29;;;20.28;34.92
59154;BME280;44935;48.944;9.418;2023-07-20T02:36:23;98524.96;;;19.96;35.57
59154;BME280;44935;48.944;9.418;2023-07-20T02:38:50;98529.53;;;19.96;35.25
59154;BME280;44935;48.944;9.418;2023-07-20T02:41:17;98526.13;;;21.18;33.77
59154;BME280;44935;48.944;9.418;2023-07-20T02:43:43;98528.13;;;22.00;32.84
59154;BME280;44935;48.944;9.418;2023-07-20T02:46:10;98536.87;;;22.29;32.75
59154;BME280;44935;48.944;9.418;2023-07-20T02:48:37;98534.21;;;21.92;32.83
59154;BME280;44935;48.944;9.418;2023-07-20T02:51:04;98535.03;;;21.54;33.43
59154;BME280;44935;48.944;9.418;2023-07-20T02:53:31;98538.70;;;21.42;33.57
59154;BME280;44935;48.944;9.418;2023-07-20T02:55:58;98535.31;;;21.58;33.55
59154;BME280;44935;48.944;9.418;2023-07-20T02:58:25;98539.85;;;21.79;33.14
59154;BME280;44935;48.944;9.418;2023-07-20T03:00:52;98543.40;;;21.04;33.53
59154;BME280;44935;48.944;9.418;2023-07-20T03:03:19;98547.19;;;20.60;34.30
59154;BME280;44935;48.944;9.418;2023-07-20T03:05:46;98547.11;;;21.32;33.56
59154;BME280;44935;48.944;9.418;2023-07-20T03:08:13;98547.91;;;21.68;33.02
59154;BME280;44935;48.944;9.418;2023-07-20T03:10:40;98549.49;;;22.09;32.60
59154;BME280;44935;48.944;9.418;2023-07-20T03:13:07;98544.28;;;21.53;32.96
59154;BME280;44935;48.944;9.418;2023-07-20T03:15:34;98546.72;;;20.81;34.39
59154;BME280;44935;48.944;9.418;2023-07-20T03:18:02;98548.81;;;20.60;34.98
59154;BME280;44935;48.944;9.418;2023-07-20T03:20:29;98552.76;;;20.47;35.60
59154;BME280;44935;48.944;9.418;2023-07-20T03:22:55;98557.06;;;20.80;35.53
59154;BME280;44935;48.944;9.418;2023-07-20T03:25:23;98560.20;;;20.31;36.22
59154;BME280;44935;48.944;9.418;2023-07-20T03:27:49;98566.49;;;20.29;36.23
59154;BME280;44935;48.944;9.418;2023-07-20T03:30:16;98570.15;;;19.96;36.60
59154;BME280;44935;48.944;9.418;2023-07-20T03:32:43;98571.09;;;20.41;36.24
59154;BME280;44935;48.944;9.418;2023-07-20T03:35:10;98571.10;;;20.13;36.41
59154;BME280;44935;48.944;9.418;2023-07-20T03:37:37;98568.01;;;20.49;36.13
59154;BME280;44935;48.944;9.418;2023-07-20T03:40:06;98567.99;;;20.14;36.51
59154;BME280;44935;48.944;9.418;2023-07-20T03:42:33;98570.44;;;20.17;36.44
59154;BME280;44935;48.944;9.418;2023-07-20T03:45:00;98570.79;;;20.07;36.56
59154;BME280;44935;48.944;9.418;2023-07-20T03:47:27;98569.79;;;19.81;37.01
59154;BME280;44935;48.944;9.418;2023-07-20T03:49:54;98569.70;;;19.54;37.32
59154;BME280;44935;48.944;9.418;2023-07-20T03:52:21;98570.28;;;19.52;37.02
59154;BME280;44935;48.944;9.418;2023-07-20T03:54:48;98574.43;;;19.41;37.27
59154;BME280;44935;48.944;9.418;2023-07-20T03:57:15;98577.00;;;20.07;36.64
59154;BME280;44935;48.944;9.418;2023-07-20T03:59:45;98576.95;;;20.60;36.33
59154;BME280;44935;48.944;9.418;2023-07-20T04:02:12;98577.30;;;20.06;36.60
59154;BME280;44935;48.944;9.418;2023-07-20T04:04:39;98579.88;;;20.07;36.71
59154;BME280;44935;48.944;9.418;2023-07-20T04:07:06;98583.14;;;20.16;36.97
59154;BME280;44935;48.944;9.418;2023-07-20T04:09:33;98583.40;;;20.12;37.00
59154;BME280;44935;48.944;9.418;2023-07-20T04:11:59;98585.97;;;19.42;38.34
59154;BME280;44935;48.944;9.418;2023-07-20T04:14:26;98589.09;;;19.12;38.96
59154;BME280;44935;48.944;9.418;2023-07-20T04:16:54;98589.96;;;19.01;38.97
59154;BME280;44935;48.944;9.418;2023-07-20T04:19:21;98589.52;;;18.74;38.81
59154;BME280;44935;48.944;9.418;2023-07-20T04:21:48;98594.81;;;19.08;38.54
59154;BME280;44935;48.944;9.418;2023-07-20T04:24:15;98594.78;;;19.17;38.34
59154;BME280;44935;48.944;9.418;2023-07-20T04:26:42;98593.52;;;19.47;37.78
59154;BME280;44935;48.944;9.418;2023-07-20T04:29:08;98599.30;;;19.38;37.95
59154;BME280;44935;48.944;9.418;2023-07-20T04:31:35;98597.22;;;20.16;37.43
59154;BME280;44935;48.944;9.418;2023-07-20T04:34:02;98597.29;;;19.65;37.85
59154;BME280;44935;48.944;9.418;2023-07-20T04:36:29;98595.98;;;19.40;38.02
59154;BME280;44935;48.944;9.418;2023-07-20T04:38:56;98592.74;;;18.88;38.70
59154;BME280;44935;48.944;9.418;2023-07-20T04:41:23;98591.83;;;19.55;38.67
59154;BME280;44935;48.944;9.418;2023-07-20T04:43:50;98597.64;;;19.65;37.89
59154;BME280;44935;48.944;9.418;2023-07-20T04:46:17;98594.55;;;19.81;38.37
59154;BME280;44935;48.944;9.418;2023-07-20T04:48:44;98593.40;;;19.49;38.19
59154;BME280;44935;48.944;9.418;2023-07-20T04:51:10;98591.62;;;19.43;38.27
59154;BME280;44935;48.944;9.418;2023-07-20T04:53:37;98590.53;;;19.67;37.89
59154;BME280;44935;48.944;9.418;2023-07-20T04:56:04;98593.79;;;20.04;37.57
59154;BME280;44935;48.944;9.418;2023-07-20T04:58:31;98592.13;;;20.26;37.44
59154;BME280;44935;48.944;9.418;2023-07-20T05:00:58;98594.96;;;20.50;37.24
59154;BME280;44935;48.944;9.418;2023-07-20T05:03:25;98592.02;;;20.64;37.36
59154;BME280;44935;48.944;9.418;2023-07-20T05:05:52;98594.95;;;20.31;37.33
59154;BME280;44935;48.944;9.418;2023-07-20T05:08:19;98599.41;;;20.29;37.48
59154;BME280;44935;48.944;9.418;2023-07-20T05:10:46;98598.82;;;20.27;37.47
59154;BME280;44935;48.944;9.418;2023-07-20T05:13:13;98596.06;;;20.64;37.12
59154;BME280;44935;48.944;9.418;2023-07-20T05:15:40;98598.31;;;20.27;37.57
59154;BME280;44935;48.944;9.418;2023-07-20T05:18:07;98598.04;;;20.28;38.17
59154;BME280;44935;48.944;9.418;2023-07-20T05:20:34;98601.03;;;20.17;38.37
59154;BME280;44935;48.944;9.418;2023-07-20T05:23:01;98600.38;;;20.14;38.37
59154;BME280;44935;48.944;9.418;2023-07-20T05:25:28;98599.61;;;20.15;37.35
59154;BME280;44935;48.944;9.418;2023-07-20T05:27:55;98599.24;;;20.53;36.59
59154;BME280;44935;48.944;9.418;2023-07-20T05:30:22;98602.22;;;20.76;36.85
59154;BME280;44935;48.944;9.418;2023-07-20T05:32:49;98600.64;;;20.52;36.57
59154;BME280;44935;48.944;9.418;2023-07-20T05:35:15;98595.08;;;21.28;35.75
59154;BME280;44935;48.944;9.418;2023-07-20T05:37:42;98594.35;;;21.43;34.41
59154;BME280;44935;48.944;9.418;2023-07-20T05:40:10;98593.73;;;21.30;33.78
59154;BME280;44935;48.944;9.418;2023-07-20T05:42:37;98594.36;;;21.45;34.23
59154;BME280;44935;48.944;9.418;2023-07-20T05:45:05;98591.92;;;21.04;35.27
59154;BME280;44935;48.944;9.418;2023-07-20T05:47:32;98594.85;;;21.12;34.47
59154;BME280;44935;48.944;9.418;2023-07-20T05:49:58;98598.75;;;21.05;34.81
59154;BME280;44935;48.944;9.418;2023-07-20T05:52:25;98598.54;;;21.00;34.52
59154;BME280;44935;48.944;9.418;2023-07-20T05:54:52;98597.11;;;21.39;34.60
59154;BME280;44935;48.944;9.418;2023-07-20T05:57:19;98598.47;;;21.33;34.34
59154;BME280;44935;48.944;9.418;2023-07-20T05:59:46;98597.87;;;22.09;33.49
59154;BME280;44935;48.944;9.418;2023-07-20T06:02:13;98598.66;;;21.22;34.47
59154;BME280;44935;48.944;9.418;2023-07-20T06:04:40;98598.16;;;21.97;33.40
59154;BME280;44935;48.944;9.418;2023-07-20T06:07:07;98597.97;;;21.19;33.53
59154;BME280;44935;48.944;9.418;2023-07-20T06:09:34;98600.96;;;22.08;32.68
59154;BME280;44935;48.944;9.418;2023-07-20T06:12:02;98600.07;;;22.67;32.92
59154;BME280;44935;48.944;9.418;2023-07-20T06:14:30;98600.96;;;22.49;32.57
59154;BME280;44935;48.944;9.418;2023-07-20T06:16:57;98600.42;;;22.33;32.58
59154;BME280;44935;48.944;9.418;2023-07-20T06:19:24;98605.05;;;22.75;32.44
59154;BME280;44935;48.944;9.418;2023-07-20T06:21:51;98607.06;;;22.71;32.24
59154;BME280;44935;48.944;9.418;2023-07-20T06:24:18;98604.87;;;22.88;32.51
59154;BME280;44935;48.944;9.418;2023-07-20T06:26:44;98600.97;;;23.22;31.92
59154;BME280;44935;48.944;9.418;2023-07-20T06:29:11;98599.74;;;22.73;32.10
59154;BME280;44935;48.944;9.418;2023-07-20T06:31:38;98599.25;;;23.19;32.09
59154;BME280;44935;48.944;9.418;2023-07-20T06:34:05;98601.03;;;23.14;31.97
59154;BME280;44935;48.944;9.418;2023-07-20T06:36:32;98598.84;;;22.91;31.78
59154;BME280;44935;48.944;9.418;2023-07-20T06:38:59;98599.68;;;23.13;31.76
59154;BME280;44935;48.944;9.418;2023-07-20T06:41:26;98603.44;;;23.03;32.05
59154;BME280;44935;48.944;9.418;2023-07-20T06:43:53;98602.53;;;22.61;32.42
59154;BME280;44935;48.944;9.418;2023-07-20T06:46:20;98598.58;;;23.42;31.91
59154;BME280;44935;48.944;9.418;2023-07-20T06:48:47;98600.71;;;23.62;31.55
59154;BME280;44935;48.944;9.418;2023-07-20T06:51:14;98601.27;;;22.78;32.04
59154;BME280;44935;48.944;9.418;2023-07-20T06:53:41;98601.91;;;22.26;33.00
59154;BME280;44935;48.944;9.418;2023-07-20T06:56:08;98601.53;;;22.37;32.69
59154;BME280;44935;48.944;9.418;2023-07-20T06:58:35;98600.54;;;22.62;33.09
59154;BME280;44935;48.944;9.418;2023-07-20T07:01:05;98602.36;;;22.68;32.61
59154;BME280;44935;48.944;9.418;2023-07-20T07:03:32;98596.72;;;22.90;31.68
59154;BME280;44935;48.944;9.418;2023-07-20T07:05:59;98594.08;;;22.73;32.65
59154;BME280;44935;48.944;9.418;2023-07-20T07:08:26;98594.31;;;22.39;32.92
59154;BME280;44935;48.944;9.418;2023-07-20T07:10:53;98596.92;;;21.03;35.11
59154;BME280;44935;48.944;9.418;2023-07-20T07:13:20;98596.07;;;22.71;33.24
59154;BME280;44935;48.944;9.418;2023-07-20T07:15:47;98595.01;;;22.10;33.46
59154;BME280;44935;48.944;9.418;2023-07-20T07:18:14;98591.40;;;21.72;33.96
59154;BME280;44935;48.944;9.418;2023-07-20T07:20:41;98588.18;;;23.13;31.89
59154;BME280;44935;48.944;9.418;2023-07-20T07:23:08;98584.72;;;23.59;31.85
59154;BME280;44935;48.944;9.418;2023-07-20T07:25:35;98580.91;;;23.90;31.32
59154;BME280;44935;48.944;9.418;2023-07-20T07:28:02;98581.60;;;23.94;30.69
59154;BME280;44935;48.944;9.418;2023-07-20T07:30:29;98577.66;;;23.90;31.38
59154;BME280;44935;48.944;9.418;2023-07-20T07:32:55;98579.09;;;23.30;32.07
59154;BME280;44935;48.944;9.418;2023-07-20T07:35:22;98581.95;;;23.42;32.17
59154;BME280;44935;48.944;9.418;2023-07-20T07:37:49;98580.70;;;23.23;32.12
59154;BME280;44935;48.944;9.418;2023-07-20T07:40:16;98578.93;;;23.43;31.91
59154;BME280;44935;48.944;9.418;2023-07-20T07:42:43;98573.81;;;23.92;32.10
59154;BME280;44935;48.944;9.418;2023-07-20T07:45:10;98579.29;;;24.20;31.37
59154;BME280;44935;48.944;9.418;2023-07-20T07:47:37;98579.50;;;24.11;30.90
59154;BME280;44935;48.944;9.418;2023-07-20T07:50:06;98581.30;;;23.88;30.88
59154;BME280;44935;48.944;9.418;2023-07-20T07:52:32;98582.53;;;23.19;32.02
59154;BME280;44935;48.944;9.418;2023-07-20T07:54:59;98574.91;;;23.59;31.93
59154;BME280;44935;48.944;9.418;2023-07-20T07:57:26;98572.64;;;23.23;31.92
59154;BME280;44935;48.944;9.418;2023-07-20T07:59:53;98573.09;;;22.73;32.55
59154;BME280;44935;48.944;9.418;2023-07-20T08:02:20;98574.12;;;23.95;31.53
59154;BME280;44935;48.944;9.418;2023-07-20T08:04:47;98574.46;;;23.91;31.37
59154;BME280;44935;48.944;9.418;2023-07-20T08:07:14;98573.66;;;23.70;31.24
59154;BME280;44935;48.944;9.418;2023-07-20T08:09:41;98571.89;;;23.66;31.76
59154;BME280;44935;48.944;9.418;2023-07-20T08:12:08;98568.91;;;23.43;31.69
59154;BME280;44935;48.944;9.418;2023-07-20T08:14:35;98566.81;;;23.87;31.17
59154;BME280;44935;48.944;9.418;2023-07-20T08:17:03;98569.24;;;23.14;31.83
59154;BME280;44935;48.944;9.418;2023-07-20T08:19:30;98573.35;;;24.07;31.06
59154;BME280;44935;48.944;9.418;2023-07-20T08:21:57;98568.97;;;22.29;32.97
59154;BME280;44935;48.944;9.418;2023-07-20T08:24:24;98570.25;;;22.19;33.19
59154;BME280;44935;48.944;9.418;2023-07-20T08:26:51;98573.11;;;21.63;33.88
59154;BME280;44935;48.944;9.418;2023-07-20T08:29:18;98570.80;;;22.47;33.21
59154;BME280;44935;48.944;9.418;2023-07-20T08:31:44;98569.53;;;22.27;32.65
59154;BME280;44935;48.944;9.418;2023-07-20T08:34:11;98567.14;;;21.64;32.69
59154;BME280;44935;48.944;9.418;2023-07-20T08:36:38;98568.34;;;22.01;32.65
59154;BME280;44935;48.944;9.418;2023-07-20T08:39:05;98568.51;;;22.03;32.29
59154;BME280;44935;48.944;9.418;2023-07-20T08:41:33;98568.03;;;22.12;32.94
59154;BME280;44935;48.944;9.418;2023-07-20T08:44:01;98559.99;;;22.49;32.50
59154;BME280;44935;48.944;9.418;2023-07-20T08:46:28;98568.98;;;22.26;32.59
59154;BME280;44935;48.944;9.418;2023-07-20T08:48:56;98565.21;;;22.05;32.38
59154;BME280;44935;48.944;9.418;2023-07-20T08:51:25;98561.03;;;22.24;32.13
59154;BME280;44935;48.944;9.418;2023-07-20T08:53:52;98561.72;;;23.14;31.66
59154;BME280;44935;48.944;9.418;2023-07-20T08:56:20;98564.24;;;22.92;31.79
59154;BME280;44935;48.944;9.418;2023-07-20T08:58:47;98560.44;;;23.50;31.50
59154;BME280;44935;48.944;9.418;2023-07-20T09:01:15;98564.25;;;24.01;31.30
59154;BME280;44935;48.944;9.418;2023-07-20T09:03:45;98563.14;;;23.28;31.58
59154;BME280;44935;48.944;9.418;2023-07-20T09:06:12;98564.11;;;23.18;31.11
59154;BME280;44935;48.944;9.418;2023-07-20T09:08:39;98564.43;;;23.51;29.97
59154;BME280;44935;48.944;9.418;2023-07-20T09:11:07;98564.53;;;23.47;30.14
59154;BME280;44935;48.944;9.418;2023-07-20T09:13:34;98562.19;;;22.50;31.13
59154;BME280;44935;48.944;9.418;2023-07-20T09:16:01;98562.61;;;22.17;30.75
59154;BME280;44935;48.944;9.418;2023-07-20T09:18:29;98556.20;;;22.97;30.72
59154;BME280;44935;48.944;9.418;2023-07-20T09:20:58;98553.69;;;23.72;29.47
59154;BME280;44935;48.944;9.418;2023-07-20T09:23:30;98550.36;;;24.32;28.63
59154;BME280;44935;48.944;9.418;2023-07-20T09:25:58;98552.32;;;23.66;29.49
59154;BME280;44935;48.944;9.418;2023-07-20T09:28:26;98553.70;;;24.87;28.25
59154;BME280;44935;48.944;9.418;2023-07-20T09:30:55;98553.82;;;23.95;29.04
59154;BME280;44935;48.944;9.418;2023-07-20T09:33:22;98557.86;;;24.05;28.22
59154;BME280;44935;48.944;9.418;2023-07-20T09:35:50;98559.97;;;23.49;29.22
59154;BME280;44935;48.944;9.418;2023-07-20T09:38:17;98556.78;;;23.66;29.02
59154;BME280;44935;48.944;9.418;2023-07-20T09:40:43;98557.22;;;23.63;28.91
59154;BME280;44935;48.944;9.418;2023-07-20T09:43:11;98555.24;;;23.05;29.27
59154;BME280;44935;48.944;9.418;2023-07-20T09:45:40;98559.41;;;24.40;28.17
59154;BME280;44935;48.944;9.418;2023-07-20T09:48:09;98562.13;;;24.58;27.66
59154;BME280;44935;48.944;9.418;2023-07-20T09:50:41;98559.62;;;25.34;26.13
59154;BME280;44935;48.944;9.418;2023-07-20T09:53:11;98558.66;;;25.09;24.79
59154;BME280;44935;48.944;9.418;2023-07-20T09:55:40;98557.92;;;24.71;25.37
59154;BME280;44935;48.944;9.418;2023-07-20T09:58:08;98560.60;;;24.70;25.05
59154;BME280;44935;48.944;9.418;2023-07-20T10:00:36;98561.00;;;24.45;25.45
59154;BME280;44935;48.944;9.418;2023-07-20T10:03:05;98556.18;;;23.10;27.30
59154;BME280;44935;48.944;9.418;2023-07-20T10:05:34;98547.45;;;23.40;27.68
59154;BME280;44935;48.944;9.418;2023-07-20T10:08:03;98545.34;;;23.76;27.16
59154;BME280;44935;48.944;9.418;2023-07-20T10:10:33;98553.45;;;24.22;27.08
59154;BME280;44935;48.944;9.418;2023-07-20T10:13:01;98548.99;;;24.26;26.18
59154;BME280;44935;48.944;9.418;2023-07-20T10:15:30;98546.07;;;24.85;24.76
59154;BME280;44935;48.944;9.418;2023-07-20T10:18:03;98543.61;;;24.56;24.85
59154;BME280;44935;48.944;9.418;2023-07-20T10:20:34;98540.88;;;24.62;25.89
59154;BME280;44935;48.944;9.418;2023-07-20T10:23:03;98537.34;;;24.53;26.28
59154;BME280;44935;48.944;9.418;2023-07-20T10:25:31;98536.09;;;24.68;25.43
59154;BME280;44935;48.944;9.418;2023-07-20T10:27:58;98540.54;;;24.50;24.81
59154;BME280;44935;48.944;9.418;2023-07-20T10:30:27;98542.77;;;24.58;24.36
59154;BME280;44935;48.944;9.418;2023-07-20T10:32:54;98539.53;;;24.35;25.15
59154;BME280;44935;48.944;9.418;2023-07-20T10:35:21;98531.42;;;23.91;25.31
59154;BME280;44935;48.944;9.418;2023-07-20T10:37:50;98524.98;;;23.34;24.87
59154;BME280;44935;48.944;9.418;2023-07-20T10:40:26;98513.22;;;22.89;25.82
59154;BME280;44935;48.944;9.418;2023-07-20T10:42:57;98516.95;;;23.96;25.95
59154;BME280;44935;48.944;9.418;2023-07-20T10:45:34;98503.46;;;23.15;26.77
59154;BME280;44935;48.944;9.418;2023-07-20T10:48:03;98520.08;;;24.07;24.11
59154;BME280;44935;48.944;9.418;2023-07-20T10:50:32;98514.07;;;24.63;24.54
59154;BME280;44935;48.944;9.418;2023-07-20T10:53:10;98506.23;;;24.94;23.96
59154;BME280;44935;48.944;9.418;2023-07-20T10:55:38;98500.52;;;25.06;24.24
59154;BME280;44935;48.944;9.418;2023-07-20T10:58:08;98503.99;;;24.81;25.03
59154;BME280;44935;48.944;9.418;2023-07-20T11:00:36;98505.64;;;25.38;24.30
59154;BME280;44935;48.944;9.418;2023-07-20T11:03:03;98510.05;;;25.86;23.02
59154;BME280;44935;48.944;9.418;2023-07-20T11:05:33;98505.06;;;24.94;23.96
59154;BME280;44935;48.944;9.418;2023-07-20T11:08:04;98497.53;;;26.40;22.92
59154;BME280;44935;48.944;9.418;2023-07-20T11:10:31;98502.67;;;24.88;24.13
59154;BME280;44935;48.944;9.418;2023-07-20T11:13:31;98500.87;;;24.42;25.44
59154;BME280;44935;48.944;9.418;2023-07-20T11:16:03;98494.47;;;24.73;24.72
59154;BME280;44935;48.944;9.418;2023-07-20T11:18:33;98495.58;;;23.81;25.78
59154;BME280;44935;48.944;9.418;2023-07-20T11:21:01;98485.17;;;25.14;22.21
59154;BME280;44935;48.944;9.418;2023-07-20T11:23:29;98494.82;;;24.70;23.57
59154;BME280;44935;48.944;9.418;2023-07-20T11:25:58;98493.61;;;26.15;23.97
59154;BME280;44935;48.944;9.418;2023-07-20T11:28:25;98490.43;;;25.72;23.26
59154;BME280;44935;48.944;9.418;2023-07-20T11:30:53;98491.00;;;26.03;22.59
59154;BME280;44935;48.944;9.418;2023-07-20T11:33:19;98487.71;;;26.13;22.29
59154;BME280;44935;48.944;9.418;2023-07-20T11:35:48;98491.36;;;25.38;22.97
59154;BME280;44935;48.944;9.418;2023-07-20T11:38:15;98496.73;;;25.36;23.26
59154;BME280;44935;48.944;9.418;2023-07-20T11:40:43;98492.57;;;26.49;22.54
59154;BME280;44935;48.944;9.418;2023-07-20T11:43:11;98490.32;;;26.46;20.90
59154;BME280;44935;48.944;9.418;2023-07-20T11:45:38;98492.26;;;25.36;22.78
59154;BME280;44935;48.944;9.418;2023-07-20T11:48:05;98492.46;;;26.32;22.60
59154;BME280;44935;48.944;9.418;2023-07-20T11:50:38;98485.05;;;25.54;23.03
59154;BME280;44935;48.944;9.418;2023-07-20T11:53:06;98487.37;;;25.37;23.64
59154;BME280;44935;48.944;9.418;2023-07-20T11:55:33;98489.16;;;25.29;22.95
59154;BME280;44935;48.944;9.418;2023-07-20T11:58:02;98477.77;;;25.75;23.68
59154;BME280;44935;48.944;9.418;2023-07-20T12:00:29;98481.72;;;26.05;22.57
59154;BME280;44935;48.944;9.418;2023-07-20T12:02:56;98474.17;;;24.83;23.01
59154;BME280;44935;48.944;9.418;2023-07-20T12:05:23;98471.91;;;26.54;22.08
59154;BME280;44935;48.944;9.418;2023-07-20T12:07:50;98467.61;;;24.34;23.60
59154;BME280;44935;48.944;9.418;2023-07-20T12:10:24;98471.83;;;23.68;23.96
59154;BME280;44935;48.944;9.418;2023-07-20T12:12:51;98464.98;;;25.43;23.65
59154;BME280;44935;48.944;9.418;2023-07-20T12:15:21;98467.52;;;25.10;23.43
59154;BME280;44935;48.944;9.418;2023-07-20T12:17:50;98461.23;;;26.51;22.17
59154;BME280;44935;48.944;9.418;2023-07-20T12:20:26;98461.56;;;26.15;21.90
59154;BME280;44935;48.944;9.418;2023-07-20T12:22:57;98458.09;;;26.58;22.41
59154;BME280;44935;48.944;9.418;2023-07-20T12:25:33;98459.40;;;25.94;21.51
59154;BME280;44935;48.944;9.418;2023-07-20T12:28:01;98452.30;;;24.60;23.56
59154;BME280;44935;48.944;9.418;2023-07-20T12:30:28;98449.51;;;25.56;23.34
59154;BME280;44935;48.944;9.418;2023-07-20T12:32:55;98447.82;;;26.40;22.38
59154;BME280;44935;48.944;9.418;2023-07-20T12:35:22;98445.24;;;27.22;19.82
59154;BME280;44935;48.944;9.418;2023-07-20T12:37:49;98444.90;;;27.41;19.12
59154;BME280;44935;48.944;9.418;2023-07-20T12:40:16;98441.20;;;26.46;18.81
59154;BME280;44935;48.944;9.418;2023-07-20T12:42:43;98434.10;;;25.97;19.71
59154;BME280;44935;48.944;9.418;2023-07-20T12:45:10;98432.64;;;27.06;20.65
59154;BME280;44935;48.944;9.418;2023-07-20T12:47:36;98435.36;;;27.26;19.86
59154;BME280;44935;48.944;9.418;2023-07-20T12:50:04;98433.90;;;27.02;20.15
59154;BME280;44935;48.944;9.418;2023-07-20T12:52:31;98432.89;;;26.92;20.22
59154;BME280;44935;48.944;9.418;2023-07-20T12:54:58;98430.82;;;27.31;19.23
59154;BME280;44935;48.944;9.418;2023-07-20T12:57:25;98424.89;;;27.43;19.46
59154;BME280;44935;48.944;9.418;2023-07-20T12:59:52;98415.86;;;26.88;19.82
59154;BME280;44935;48.944;9.418;2023-07-20T13:02:19;98414.07;;;26.92;20.00
59154;BME280;44935;48.944;9.418;2023-07-20T13:04:46;98416.39;;;27.22;20.74